Bay Bridge — 3FCS5 — position and weather

sailwx.info

Track history (hours):
 
Tides and Currents Weather Stations Pressure Air Temp Water Temp Dewpoint Dewpoint Depression Visibility Wind Speed Wind Dir Waves Ship Positions

Bay Bridge

Last reported at 2016-Apr-25 02:09 UTC. Time now 2016-May-01 09:59 UTC.
Position N 29°40' E 122°33'.

Length 267 m; draft 12.1 m.

Type: Ship (hazmat cat A). MMSI: 354120000.

Date/timePositionNaut miles runAvg speedWind from/ knotsBaromVisibWave heightAir tempDewpointWater temp
2016-Apr-25 02:09N 29°40' E 122°33'1014.8
2016-Apr-25 01:31N 29°43' E 122°23'1212.1
2016-Apr-25 00:33N 29°50' E 122°12'1413.8
2016-Apr-24 23:33N 29°57' E 121°59'7 1.7
2016-Apr-24 19:17N 29°57' E 121°51'0 0.0
2016-Apr-24 18:29N 29°57' E 121°51'0 0.0
2016-Apr-24 17:29N 29°57' E 121°51'0 0.0
2016-Apr-24 15:05N 29°57' E 121°51'0 0.0
2016-Apr-24 13:08N 29°57' E 121°51'0 0.0
2016-Apr-24 11:17N 29°57' E 121°51'0 0.0
2016-Apr-24 06:29N 29°57' E 121°51'0 0.1
2016-Apr-24 05:32N 29°57' E 121°51'9 8.9
2016-Apr-24 04:32N 29°56' E 122°01'1211.9
2016-Apr-24 03:33N 29°50' E 122°13'1110.6
2016-Apr-24 02:33N 29°44' E 122°23'8 8.1
2016-Apr-24 01:33N 29°44' E 122°32'1 0.0
2016-Apr-22 05:31N 29°44' E 122°33'3 3.5
2016-Apr-22 04:33N 29°42' E 122°36'1110.9
2016-Apr-22 03:33N 29°46' E 122°48'1414.4
2016-Apr-22 02:33N 29°56' E 123°00'8311.7
2016-Apr-21 19:28N 31°09' E 122°14'1413.5
2016-Apr-21 18:28N 31°15' E 121°60'1111.3
2016-Apr-21 17:32N 31°18' E 121°48'8 7.7
2016-Apr-21 16:33N 31°20' E 121°39'0 0.0
2016-Apr-21 15:19N 31°20' E 121°39'0 0.0
2016-Apr-21 14:28N 31°20' E 121°39'0 0.0
2016-Apr-21 13:07N 31°20' E 121°39'0 0.1
2016-Apr-21 12:13N 31°20' E 121°39'0 0.0
2016-Apr-21 09:31N 31°20' E 121°39'0 0.0
2016-Apr-21 08:31N 31°20' E 121°39'0 0.0
2016-Apr-21 07:16N 31°20' E 121°39'0 0.0
2016-Apr-21 05:13N 31°20' E 121°39'0 0.0
2016-Apr-21 04:25N 31°20' E 121°39'0 0.0
2016-Apr-21 02:28N 31°20' E 121°39'0 0.0
2016-Apr-21 01:28N 31°20' E 121°39'0 0.0
2016-Apr-21 00:13N 31°20' E 121°39'0 0.0
2016-Apr-20 23:31N 31°20' E 121°39'0 0.0
2016-Apr-20 20:16N 31°20' E 121°39'0 0.1
2016-Apr-20 19:24N 31°20' E 121°39'0 0.1
2016-Apr-20 17:33N 31°20' E 121°40'1 1.2
2016-Apr-20 16:33N 31°20' E 121°41'6 5.7
2016-Apr-20 15:33N 31°18' E 121°47'  
2016-Apr-15 14:05N 31°03' E 125°53'3513.8
2016-Apr-15 11:32N 31°02' E 126°35'1413.9
2016-Apr-15 10:33N 31°01' E 126°51'  
Track history (hours):
 
Tides and Currents Weather Stations Pressure Air Temp Water Temp Dewpoint Dewpoint Depression Visibility Wind Speed Wind Dir Waves Ship Positions

Bay Bridge

Last reported at 2016-Apr-25 02:09 UTC. Time now 2016-May-01 09:59 UTC.
Position N 29°40' E 122°33'.

Length 267 m; draft 12.1 m.

Type: Ship (hazmat cat A). MMSI: 354120000.

Date/timePositionNaut miles runAvg speedWind from/ knotsBaromVisibWave heightAir tempDewpointWater temp
2016-Apr-25 02:09N 29°40' E 122°33'1014.8
2016-Apr-25 01:31N 29°43' E 122°23'1212.1
2016-Apr-25 00:33N 29°50' E 122°12'1413.8
2016-Apr-24 23:33N 29°57' E 121°59'7 1.7
2016-Apr-24 19:17N 29°57' E 121°51'0 0.0
2016-Apr-24 18:29N 29°57' E 121°51'0 0.0
2016-Apr-24 17:29N 29°57' E 121°51'0 0.0
2016-Apr-24 15:05N 29°57' E 121°51'0 0.0
2016-Apr-24 13:08N 29°57' E 121°51'0 0.0
2016-Apr-24 11:17N 29°57' E 121°51'0 0.0
2016-Apr-24 06:29N 29°57' E 121°51'0 0.1
2016-Apr-24 05:32N 29°57' E 121°51'9 8.9
2016-Apr-24 04:32N 29°56' E 122°01'1211.9
2016-Apr-24 03:33N 29°50' E 122°13'1110.6
2016-Apr-24 02:33N 29°44' E 122°23'8 8.1
2016-Apr-24 01:33N 29°44' E 122°32'1 0.0
2016-Apr-22 05:31N 29°44' E 122°33'3 3.5
2016-Apr-22 04:33N 29°42' E 122°36'1110.9
2016-Apr-22 03:33N 29°46' E 122°48'1414.4
2016-Apr-22 02:33N 29°56' E 123°00'8311.7
2016-Apr-21 19:28N 31°09' E 122°14'1413.5
2016-Apr-21 18:28N 31°15' E 121°60'1111.3
2016-Apr-21 17:32N 31°18' E 121°48'8 7.7
2016-Apr-21 16:33N 31°20' E 121°39'0 0.0
2016-Apr-21 15:19N 31°20' E 121°39'0 0.0
2016-Apr-21 14:28N 31°20' E 121°39'0 0.0
2016-Apr-21 13:07N 31°20' E 121°39'0 0.1
2016-Apr-21 12:13N 31°20' E 121°39'0 0.0
2016-Apr-21 09:31N 31°20' E 121°39'0 0.0
2016-Apr-21 08:31N 31°20' E 121°39'0 0.0
2016-Apr-21 07:16N 31°20' E 121°39'0 0.0
2016-Apr-21 05:13N 31°20' E 121°39'0 0.0
2016-Apr-21 04:25N 31°20' E 121°39'0 0.0
2016-Apr-21 02:28N 31°20' E 121°39'0 0.0
2016-Apr-21 01:28N 31°20' E 121°39'0 0.0
2016-Apr-21 00:13N 31°20' E 121°39'0 0.0
2016-Apr-20 23:31N 31°20' E 121°39'0 0.0
2016-Apr-20 20:16N 31°20' E 121°39'0 0.1
2016-Apr-20 19:24N 31°20' E 121°39'0 0.1
2016-Apr-20 17:33N 31°20' E 121°40'1 1.2
2016-Apr-20 16:33N 31°20' E 121°41'6 5.7
2016-Apr-20 15:33N 31°18' E 121°47'  
2016-Apr-15 14:05N 31°03' E 125°53'3513.8
2016-Apr-15 11:32N 31°02' E 126°35'1413.9
2016-Apr-15 10:33N 31°01' E 126°51'  

Dump ship's entire track history